Time;durP1;ratioP1;P1;durP2;ratioP2;P2;SDS_P1;SDS_P2;PMS_P1;PMS_P2;Temp;Humidity;BMP_temperature;BMP_pressure;BME280_temperature;BME280_humidity;BME280_pressure;Samples;Min_cycle;Max_cycle;Signal;HPM_P1;HPM_P2
2022/07/13 00:00:32;;;;;;;1.90;1.43;;;;;;;;;;5061371;27;87808;-54
2022/07/13 00:03:01;;;;;;;2.20;1.57;;;;;;;;;;5062822;27;86881;-54
2022/07/13 00:05:29;;;;;;;1.63;1.40;;;;;;;;;;5043436;27;86360;-54
2022/07/13 00:07:57;;;;;;;3.00;1.50;;;;;;;;;;5062760;27;89189;-54
2022/07/13 00:10:26;;;;;;;2.60;1.57;;;;;;;;;;5062584;27;88858;-54
2022/07/13 00:12:54;;;;;;;3.00;1.70;;;;;;;;;;5062659;27;87931;-54
2022/07/13 00:15:25;;;;;;;2.87;1.67;;;;;;;;;;5062985;27;86966;-54
2022/07/13 00:17:53;;;;;;;3.40;1.40;;;;;;;;;;5062156;27;88179;-54
2022/07/13 00:20:22;;;;;;;1.30;1.20;;;;;;;;;;5062877;27;87689;-54
2022/07/13 00:22:50;;;;;;;1.80;1.30;;;;;;;;;;5062927;27;87147;-55
2022/07/13 00:25:19;;;;;;;1.83;1.10;;;;;;;;;;5061893;27;87249;-54
2022/07/13 00:27:48;;;;;;;1.43;1.33;;;;;;;;;;5061658;27;88293;-54
2022/07/13 00:30:16;;;;;;;1.80;1.37;;;;;;;;;;5062275;27;87917;-55
2022/07/13 00:32:45;;;;;;;1.40;1.00;;;;;;;;;;5062339;27;87068;-54
2022/07/13 00:35:14;;;;;;;2.63;1.70;;;;;;;;;;5062594;27;87035;-55
2022/07/13 00:37:43;;;;;;;4.10;1.77;;;;;;;;;;5061879;27;89098;-54
2022/07/13 00:40:12;;;;;;;2.53;1.37;;;;;;;;;;5061947;27;88710;-54
2022/07/13 00:42:40;;;;;;;2.67;1.50;;;;;;;;;;5062362;27;89004;-54
2022/07/13 00:45:09;;;;;;;2.07;1.63;;;;;;;;;;5062176;27;87664;-54
2022/07/13 00:47:37;;;;;;;2.07;1.43;;;;;;;;;;5061884;27;88268;-54
2022/07/13 00:50:07;;;;;;;2.87;1.63;;;;;;;;;;5062312;27;87957;-54
2022/07/13 00:52:36;;;;;;;2.57;1.60;;;;;;;;;;5062471;27;87096;-54
2022/07/13 00:55:05;;;;;;;2.57;1.70;;;;;;;;;;5061888;27;86400;-54
2022/07/13 00:57:34;;;;;;;2.03;1.70;;;;;;;;;;5062011;27;86990;-54
2022/07/13 01:00:04;;;;;;;4.47;1.80;;;;;;;;;;5061332;27;87944;-54
2022/07/13 01:02:32;;;;;;;2.57;1.63;;;;;;;;;;5043594;27;87925;-54
2022/07/13 01:05:01;;;;;;;1.43;1.33;;;;;;;;;;5062565;27;87028;-54
2022/07/13 01:07:31;;;;;;;2.20;1.30;;;;;;;;;;5061443;27;88241;-55
2022/07/13 01:10:00;;;;;;;1.53;1.20;;;;;;;;;;5061778;27;87788;-54
2022/07/13 01:12:29;;;;;;;2.30;1.40;;;;;;;;;;5061976;27;87085;-54
2022/07/13 01:14:57;;;;;;;1.67;1.37;;;;;;;;;;5061571;27;87178;-54
2022/07/13 01:17:25;;;;;;;1.63;1.20;;;;;;;;;;5061087;27;88110;-54
2022/07/13 01:19:54;;;;;;;1.50;1.40;;;;;;;;;;5061576;27;88034;-54
2022/07/13 01:22:22;;;;;;;1.43;1.30;;;;;;;;;;5061972;27;86843;-54
2022/07/13 01:24:52;;;;;;;1.90;1.70;;;;;;;;;;5062123;27;86898;-54
2022/07/13 01:27:20;;;;;;;2.80;1.70;;;;;;;;;;5060392;27;90084;-54
2022/07/13 01:29:49;;;;;;;2.07;1.30;;;;;;;;;;5061912;27;88844;-54
2022/07/13 01:32:17;;;;;;;1.73;1.63;;;;;;;;;;5061775;27;86995;-53
2022/07/13 01:34:46;;;;;;;2.07;1.40;;;;;;;;;;5061785;27;87186;-54
2022/07/13 01:37:14;;;;;;;2.13;1.60;;;;;;;;;;5062402;27;88125;-54
2022/07/13 01:39:42;;;;;;;3.00;1.57;;;;;;;;;;5067984;27;88009;-54
2022/07/13 01:42:12;;;;;;;11.40;2.10;;;;;;;;;;5068175;27;87046;-54
2022/07/13 01:44:40;;;;;;;3.53;1.50;;;;;;;;;;5068050;27;86402;-54
2022/07/13 01:47:09;;;;;;;2.23;1.80;;;;;;;;;;5068397;27;89197;-54
2022/07/13 01:49:37;;;;;;;2.03;1.60;;;;;;;;;;5068463;27;87892;-54
2022/07/13 01:52:06;;;;;;;2.27;1.67;;;;;;;;;;5067990;27;87949;-54
2022/07/13 01:54:34;;;;;;;2.00;1.57;;;;;;;;;;5079696;27;87018;-54
2022/07/13 01:57:02;;;;;;;4.20;2.23;;;;;;;;;;5089245;27;88643;-54
2022/07/13 01:59:32;;;;;;;2.20;1.40;;;;;;;;;;5069622;27;88980;-54
2022/07/13 02:02:01;;;;;;;2.23;1.80;;;;;;;;;;5068300;27;86999;-54
2022/07/13 02:04:29;;;;;;;1.60;1.40;;;;;;;;;;5068208;27;87094;-54
2022/07/13 02:06:57;;;;;;;3.10;1.30;;;;;;;;;;5067428;27;89176;-54
2022/07/13 02:09:26;;;;;;;3.03;1.70;;;;;;;;;;5068050;27;87840;-54
2022/07/13 02:11:55;;;;;;;2.43;1.53;;;;;;;;;;5068452;27;87028;-54
2022/07/13 02:14:23;;;;;;;2.00;1.40;;;;;;;;;;5067890;27;87130;-54
2022/07/13 02:16:52;;;;;;;1.60;1.40;;;;;;;;;;5067345;27;89212;-54
2022/07/13 02:19:21;;;;;;;2.30;1.70;;;;;;;;;;5067675;27;88754;-54
2022/07/13 02:21:50;;;;;;;1.93;1.70;;;;;;;;;;5067639;27;87126;-54
2022/07/13 02:24:18;;;;;;;1.87;1.50;;;;;;;;;;5067473;27;87068;-54
2022/07/13 02:26:46;;;;;;;2.43;1.70;;;;;;;;;;5066488;27;86995;-54
2022/07/13 02:29:15;;;;;;;1.13;1.03;;;;;;;;;;5067195;27;88972;-54
2022/07/13 02:31:43;;;;;;;1.37;1.13;;;;;;;;;;5067545;27;87018;-54
2022/07/13 02:34:13;;;;;;;3.37;1.40;;;;;;;;;;5067813;27;86226;-54
2022/07/13 02:36:41;;;;;;;3.07;1.30;;;;;;;;;;5066139;27;88202;-54
2022/07/13 02:39:09;;;;;;;1.20;1.10;;;;;;;;;;5067850;27;87887;-54
2022/07/13 02:41:38;;;;;;;1.93;1.40;;;;;;;;;;5067109;27;87995;-54
2022/07/13 02:44:06;;;;;;;1.60;1.50;;;;;;;;;;5067004;27;87143;-54
2022/07/13 02:46:34;;;;;;;1.50;1.40;;;;;;;;;;5067028;27;89256;-54
2022/07/13 02:49:03;;;;;;;2.13;1.47;;;;;;;;;;5065788;27;88817;-54
2022/07/13 02:51:32;;;;;;;2.60;1.47;;;;;;;;;;5064478;27;87131;-54
2022/07/13 02:54:01;;;;;;;1.70;1.50;;;;;;;;;;5064252;27;88443;-54
2022/07/13 02:56:29;;;;;;;1.40;1.30;;;;;;;;;;5063377;27;88260;-54
2022/07/13 02:58:57;;;;;;;1.57;1.43;;;;;;;;;;5064468;27;88048;-54
2022/07/13 03:01:26;;;;;;;1.70;1.60;;;;;;;;;;5063905;27;87027;-54
2022/07/13 03:03:54;;;;;;;1.73;1.13;;;;;;;;;;5064109;27;86744;-54
2022/07/13 03:06:22;;;;;;;2.90;1.83;;;;;;;;;;5063158;27;88683;-54
2022/07/13 03:08:52;;;;;;;2.87;1.93;;;;;;;;;;5062953;27;90007;-53
2022/07/13 03:11:20;;;;;;;3.30;2.50;;;;;;;;;;5063105;27;87134;-54
2022/07/13 03:13:49;;;;;;;2.33;2.07;;;;;;;;;;5069289;27;88852;-54
2022/07/13 03:16:17;;;;;;;3.50;2.30;;;;;;;;;;5063624;27;88143;-55
2022/07/13 03:18:45;;;;;;;3.67;2.53;;;;;;;;;;5063259;27;87760;-53
2022/07/13 03:21:14;;;;;;;5.33;2.97;;;;;;;;;;5063985;27;87078;-54
2022/07/13 03:23:42;;;;;;;3.57;2.90;;;;;;;;;;5063597;27;86190;-54
2022/07/13 03:26:12;;;;;;;3.60;2.80;;;;;;;;;;5062638;27;89102;-54
2022/07/13 03:28:40;;;;;;;5.50;3.30;;;;;;;;;;5063475;27;90914;-54
2022/07/13 03:31:08;;;;;;;4.40;3.03;;;;;;;;;;5063527;27;88002;-53
2022/07/13 03:33:36;;;;;;;4.27;3.23;;;;;;;;;;5063582;27;87051;-54
2022/07/13 03:36:05;;;;;;;6.13;3.30;;;;;;;;;;5062641;27;89214;-54
2022/07/13 03:38:33;;;;;;;5.00;3.17;;;;;;;;;;5062585;27;88569;-54
2022/07/13 03:41:02;;;;;;;5.67;3.43;;;;;;;;;;5063641;27;87107;-54
2022/07/13 03:43:31;;;;;;;7.10;4.23;;;;;;;;;;5046038;27;87145;-53
2022/07/13 03:46:00;;;;;;;5.37;3.87;;;;;;;;;;5059347;27;88234;-53
2022/07/13 03:48:28;;;;;;;5.63;3.60;;;;;;;;;;5062193;27;86530;-54
2022/07/13 03:50:56;;;;;;;5.63;2.83;;;;;;;;;;5063497;27;87060;-54
2022/07/13 03:53:24;;;;;;;4.80;3.53;;;;;;;;;;5049451;27;87065;-54
2022/07/13 03:55:53;;;;;;;5.97;3.80;;;;;;;;;;5041760;28;89471;-54
2022/07/13 03:58:21;;;;;;;5.83;3.70;;;;;;;;;;5051266;27;89815;-54
2022/07/13 04:00:51;;;;;;;7.17;3.57;;;;;;;;;;5059923;27;87084;-53
2022/07/13 04:03:19;;;;;;;7.67;4.20;;;;;;;;;;5062955;27;87211;-54
2022/07/13 04:05:48;;;;;;;7.20;3.43;;;;;;;;;;5062525;27;88159;-54
2022/07/13 04:08:17;;;;;;;5.83;3.80;;;;;;;;;;5062349;27;88886;-54
2022/07/13 04:10:45;;;;;;;5.97;3.10;;;;;;;;;;5063586;27;86995;-55
2022/07/13 04:13:14;;;;;;;4.83;3.50;;;;;;;;;;5063430;27;86328;-53
2022/07/13 04:15:43;;;;;;;5.10;3.40;;;;;;;;;;5063076;27;89041;-55
2022/07/13 04:18:13;;;;;;;5.53;3.53;;;;;;;;;;5062512;27;87751;-53
2022/07/13 04:20:41;;;;;;;3.73;2.93;;;;;;;;;;5062267;27;88005;-53
2022/07/13 04:23:09;;;;;;;7.47;3.60;;;;;;;;;;5059024;27;87076;-53
2022/07/13 04:25:38;;;;;;;3.67;2.53;;;;;;;;;;5061912;27;88272;-53
2022/07/13 04:28:06;;;;;;;2.97;2.40;;;;;;;;;;5062023;27;87823;-54
2022/07/13 04:30:34;;;;;;;4.77;2.80;;;;;;;;;;5062564;27;87042;-53
2022/07/13 04:33:02;;;;;;;4.70;2.87;;;;;;;;;;5062633;27;87022;-53
2022/07/13 04:35:32;;;;;;;5.23;2.80;;;;;;;;;;5060969;27;89196;-54
2022/07/13 04:38:00;;;;;;;3.60;2.87;;;;;;;;;;5069867;27;87868;-54
2022/07/13 04:40:29;;;;;;;5.10;2.83;;;;;;;;;;5083033;27;86926;-54
2022/07/13 04:42:57;;;;;;;5.40;2.40;;;;;;;;;;5066729;27;87012;-54
2022/07/13 04:45:25;;;;;;;6.23;2.77;;;;;;;;;;5044778;27;89025;-54
2022/07/13 04:47:54;;;;;;;2.87;2.37;;;;;;;;;;5057088;27;88760;-54
2022/07/13 04:50:22;;;;;;;4.47;2.40;;;;;;;;;;5060126;27;87040;-54
2022/07/13 04:52:52;;;;;;;3.97;2.57;;;;;;;;;;5061545;27;87165;-54
2022/07/13 04:55:20;;;;;;;4.37;2.60;;;;;;;;;;5061271;27;89163;-54
2022/07/13 04:57:49;;;;;;;3.23;2.50;;;;;;;;;;5062050;27;88849;-54
2022/07/13 05:00:17;;;;;;;3.53;2.10;;;;;;;;;;5045608;27;87101;-53
2022/07/13 05:02:45;;;;;;;2.50;2.30;;;;;;;;;;5041416;28;86329;-54
2022/07/13 05:05:14;;;;;;;4.00;2.00;;;;;;;;;;5041542;28;88953;-54
2022/07/13 05:07:42;;;;;;;3.03;1.80;;;;;;;;;;5041635;28;87804;-54
2022/07/13 05:10:12;;;;;;;2.43;2.17;;;;;;;;;;5040845;28;88061;-54
2022/07/13 05:12:40;;;;;;;2.87;2.30;;;;;;;;;;5041270;27;86997;-54
2022/07/13 05:15:09;;;;;;;2.90;2.20;;;;;;;;;;5040919;28;88516;-54
2022/07/13 05:17:37;;;;;;;3.07;1.90;;;;;;;;;;5028585;28;88954;-54
2022/07/13 05:20:07;;;;;;;3.70;2.23;;;;;;;;;;5041572;28;87011;-54
2022/07/13 05:22:35;;;;;;;2.90;2.50;;;;;;;;;;5041091;28;87183;-56
2022/07/13 05:25:03;;;;;;;3.00;2.30;;;;;;;;;;5040827;28;89333;-53
2022/07/13 05:27:33;;;;;;;3.00;2.10;;;;;;;;;;5040925;28;87763;-55
2022/07/13 05:30:01;;;;;;;3.00;2.70;;;;;;;;;;5040937;28;87147;-54
2022/07/13 05:32:29;;;;;;;2.57;1.90;;;;;;;;;;5040900;28;87087;-54
2022/07/13 05:34:58;;;;;;;3.50;2.67;;;;;;;;;;5040538;28;90230;-54
2022/07/13 05:37:26;;;;;;;5.50;3.17;;;;;;;;;;5040339;28;89804;-55
2022/07/13 05:39:54;;;;;;;10.13;3.00;;;;;;;;;;5040829;28;87030;-55
2022/07/13 05:42:23;;;;;;;4.37;2.73;;;;;;;;;;5041083;28;87094;-55
2022/07/13 05:44:52;;;;;;;4.33;2.97;;;;;;;;;;5038129;27;88462;-54
2022/07/13 05:47:21;;;;;;;8.03;4.40;;;;;;;;;;5040624;28;87985;-54
2022/07/13 05:49:49;;;;;;;6.63;3.13;;;;;;;;;;5040655;28;87144;-54
2022/07/13 05:52:17;;;;;;;6.87;3.53;;;;;;;;;;5040081;28;86298;-55
2022/07/13 05:54:45;;;;;;;4.40;3.40;;;;;;;;;;5040474;28;88262;-55
2022/07/13 05:57:14;;;;;;;6.27;3.53;;;;;;;;;;5040519;28;88873;-55
2022/07/13 05:59:42;;;;;;;7.30;3.53;;;;;;;;;;5040261;28;87979;-54
2022/07/13 06:02:12;;;;;;;5.37;3.43;;;;;;;;;;5054076;27;86956;-54
2022/07/13 06:04:41;;;;;;;5.37;4.10;;;;;;;;;;5061018;27;87785;-55
2022/07/13 06:07:10;;;;;;;7.30;3.70;;;;;;;;;;5060937;27;87987;-54
2022/07/13 06:09:38;;;;;;;5.70;3.63;;;;;;;;;;5061210;27;87049;-55
2022/07/13 06:12:07;;;;;;;6.20;3.80;;;;;;;;;;5061086;27;87046;-55
2022/07/13 06:14:35;;;;;;;5.10;3.47;;;;;;;;;;5060922;27;88032;-55
2022/07/13 06:17:03;;;;;;;4.83;2.80;;;;;;;;;;5060809;27;87849;-55
2022/07/13 06:19:33;;;;;;;5.93;3.37;;;;;;;;;;5061292;27;87545;-54
2022/07/13 06:22:02;;;;;;;4.57;2.90;;;;;;;;;;5061759;27;87036;-55
2022/07/13 06:24:30;;;;;;;4.23;2.90;;;;;;;;;;5061362;27;90196;-55
2022/07/13 06:26:58;;;;;;;4.23;2.33;;;;;;;;;;5064050;27;88883;-55
2022/07/13 06:29:27;;;;;;;6.53;3.03;;;;;;;;;;5064831;27;86994;-54
2022/07/13 06:31:55;;;;;;;2.80;2.40;;;;;;;;;;5064623;27;87189;-55
2022/07/13 06:34:23;;;;;;;4.00;2.60;;;;;;;;;;5064094;27;87949;-55
2022/07/13 06:36:53;;;;;;;4.33;2.57;;;;;;;;;;5063622;27;87046;-55
2022/07/13 06:39:21;;;;;;;4.43;2.67;;;;;;;;;;5064734;27;86709;-55
2022/07/13 06:41:50;;;;;;;2.93;2.20;;;;;;;;;;5064492;27;86298;-55
2022/07/13 06:44:18;;;;;;;3.33;2.50;;;;;;;;;;5063117;27;87970;-55
2022/07/13 06:46:47;;;;;;;3.93;2.40;;;;;;;;;;5062941;27;88874;-55
2022/07/13 06:49:15;;;;;;;4.27;2.57;;;;;;;;;;5063898;27;87989;-53
2022/07/13 06:51:49;;;;;;;3.30;2.67;;;;;;;;;;5063899;27;87067;-53
2022/07/13 06:54:19;;;;;;;5.17;2.60;;;;;;;;;;5063965;27;89589;-54
2022/07/13 06:56:47;;;;;;;2.37;1.93;;;;;;;;;;5063734;27;88881;-54
2022/07/13 06:59:16;;;;;;;2.33;2.00;;;;;;;;;;5064029;27;87090;-54
2022/07/13 07:01:44;;;;;;;3.60;2.33;;;;;;;;;;5063164;27;88895;-54
2022/07/13 07:04:13;;;;;;;3.87;2.37;;;;;;;;;;5064082;27;88556;-55
2022/07/13 07:06:41;;;;;;;3.53;2.00;;;;;;;;;;5063920;27;87822;-54
2022/07/13 07:09:10;;;;;;;2.70;1.70;;;;;;;;;;5064204;27;86932;-54
2022/07/13 07:11:39;;;;;;;1.93;1.73;;;;;;;;;;5063219;27;87123;-54
2022/07/13 07:14:08;;;;;;;2.27;1.60;;;;;;;;;;5062679;27;89145;-54
2022/07/13 07:16:37;;;;;;;1.50;1.20;;;;;;;;;;5063412;27;89771;-54
2022/07/13 07:19:05;;;;;;;1.70;1.60;;;;;;;;;;5064103;27;87184;-54
2022/07/13 07:21:52;;;;;;;1.90;1.70;;;;;;;;;;5063982;27;87069;-54
2022/07/13 07:24:20;;;;;;;6.43;1.83;;;;;;;;;;5062251;27;88286;-54
2022/07/13 07:26:51;;;;;;;2.60;2.00;;;;;;;;;;5063445;27;88797;-54
2022/07/13 07:29:19;;;;;;;2.13;1.60;;;;;;;;;;5064059;27;87015;-54
2022/07/13 07:31:47;;;;;;;2.77;1.43;;;;;;;;;;5064147;27;86273;-54
2022/07/13 07:34:16;;;;;;;3.80;1.60;;;;;;;;;;5063263;27;89027;-54
2022/07/13 07:36:44;;;;;;;1.97;1.50;;;;;;;;;;5058309;27;87959;-54
2022/07/13 07:39:13;;;;;;;3.90;1.70;;;;;;;;;;5062861;27;87965;-54
2022/07/13 07:41:41;;;;;;;1.77;1.33;;;;;;;;;;5063520;27;87003;-53
2022/07/13 07:44:11;;;;;;;1.80;1.57;;;;;;;;;;5063830;27;89186;-54
2022/07/13 07:46:39;;;;;;;1.57;1.30;;;;;;;;;;5062964;27;87913;-55
2022/07/13 07:49:08;;;;;;;1.40;1.07;;;;;;;;;;5062102;27;87033;-54
2022/07/13 07:51:36;;;;;;;1.50;1.37;;;;;;;;;;5063383;27;87221;-55
2022/07/13 07:54:24;;;;;;;7.57;2.20;;;;;;;;;;5065807;27;87649;-55
2022/07/13 07:56:53;;;;;;;2.47;1.43;;;;;;;;;;5083268;27;87820;-55
2022/07/13 07:59:22;;;;;;;2.03;1.80;;;;;;;;;;5083105;27;87027;-54
2022/07/13 08:01:51;;;;;;;5.80;2.70;;;;;;;;;;5082381;27;87085;-55
2022/07/13 08:04:19;;;;;;;4.37;2.53;;;;;;;;;;5061517;27;89063;-56
2022/07/13 08:06:48;;;;;;;4.10;2.73;;;;;;;;;;5050977;27;89861;-55
2022/07/13 08:09:16;;;;;;;6.47;3.37;;;;;;;;;;5058975;27;87097;-56
2022/07/13 08:11:45;;;;;;;8.60;3.10;;;;;;;;;;5053049;27;88140;-55
2022/07/13 08:14:13;;;;;;;5.90;2.77;;;;;;;;;;5059932;27;90851;-55
2022/07/13 08:16:43;;;;;;;3.70;2.50;;;;;;;;;;5062220;27;86970;-57
2022/07/13 08:19:12;;;;;;;2.83;1.90;;;;;;;;;;5059945;27;87062;-55
2022/07/13 08:22:00;;;;;;;3.37;2.07;;;;;;;;;;5041933;28;86216;-54
2022/07/13 08:24:28;;;;;;;3.83;2.40;;;;;;;;;;5041634;28;88110;-54
2022/07/13 08:26:57;;;;;;;6.47;2.80;;;;;;;;;;5042373;28;92154;-55
2022/07/13 08:29:25;;;;;;;3.90;2.07;;;;;;;;;;5041816;28;87948;-54
2022/07/13 08:31:55;;;;;;;2.60;2.00;;;;;;;;;;5042324;28;87060;-55
2022/07/13 08:39:55;;;;;;;2.77;1.77;;;;;;;;;;5042376;28;86983;-55
2022/07/13 08:42:23;;;;;;;3.50;1.63;;;;;;;;;;5042291;28;87027;-55
2022/07/13 08:44:51;;;;;;;2.27;1.90;;;;;;;;;;5042544;28;89039;-55
2022/07/13 08:47:21;;;;;;;1.73;1.33;;;;;;;;;;5041738;27;91374;-55
2022/07/13 08:49:49;;;;;;;1.80;1.10;;;;;;;;;;5042313;28;86920;-55
2022/07/13 08:52:18;;;;;;;3.90;2.20;;;;;;;;;;5042134;28;86933;-55
2022/07/13 08:54:46;;;;;;;7.93;2.50;;;;;;;;;;5041433;28;87952;-55
2022/07/13 08:57:17;;;;;;;3.37;1.87;;;;;;;;;;5041704;28;88784;-55
2022/07/13 08:59:45;;;;;;;1.87;1.37;;;;;;;;;;5041962;28;87147;-55
2022/07/13 09:02:13;;;;;;;7.87;2.00;;;;;;;;;;5041825;28;86822;-55
2022/07/13 09:04:43;;;;;;;3.93;1.77;;;;;;;;;;5042089;28;88024;-55
2022/07/13 09:07:12;;;;;;;2.93;1.73;;;;;;;;;;5041712;28;88848;-54
2022/07/13 09:09:40;;;;;;;7.33;2.03;;;;;;;;;;5042227;28;87267;-55
2022/07/13 09:12:28;;;;;;;2.67;1.90;;;;;;;;;;5042483;28;86180;-55
2022/07/13 09:14:57;;;;;;;2.67;1.60;;;;;;;;;;5041804;28;87715;-55
2022/07/13 09:17:30;;;;;;;3.93;2.20;;;;;;;;;;5041953;28;87977;-54
2022/07/13 09:20:02;;;;;;;3.57;2.20;;;;;;;;;;5041104;28;87817;-55
2022/07/13 09:22:30;;;;;;;2.70;1.67;;;;;;;;;;5042119;28;87020;-55
2022/07/13 09:25:00;;;;;;;2.13;1.80;;;;;;;;;;5044237;27;87254;-55
2022/07/13 09:27:28;;;;;;;3.43;2.30;;;;;;;;;;5059684;27;87913;-54
2022/07/13 09:29:57;;;;;;;3.90;2.27;;;;;;;;;;5071019;27;86995;-58
2022/07/13 09:32:25;;;;;;;4.47;2.00;;;;;;;;;;5082268;27;86957;-56
2022/07/13 09:34:54;;;;;;;7.30;2.20;;;;;;;;;;5065354;27;89200;-53
2022/07/13 09:37:24;;;;;;;5.90;2.10;;;;;;;;;;5061531;27;87891;-55
2022/07/13 09:40:08;;;;;;;2.80;1.90;;;;;;;;;;5059932;27;88079;-54
2022/07/13 09:42:37;;;;;;;3.37;1.97;;;;;;;;;;5055039;27;86866;-54
2022/07/13 09:47:54;;;;;;;3.00;1.90;;;;;;;;;;5056833;27;89946;-52
2022/07/13 09:50:23;;;;;;;1.70;1.60;;;;;;;;;;5061985;27;86734;-52
2022/07/13 09:52:54;;;;;;;2.00;1.50;;;;;;;;;;5060891;27;87123;-52
2022/07/13 09:55:24;;;;;;;2.50;1.57;;;;;;;;;;5048213;27;89049;-53
2022/07/13 09:57:53;;;;;;;3.30;1.80;;;;;;;;;;5050343;27;87889;-53
2022/07/13 10:00:31;;;;;;;1.93;1.13;;;;;;;;;;5055116;27;87204;-53
2022/07/13 10:02:59;;;;;;;2.20;1.43;;;;;;;;;;5063494;27;87790;-55
2022/07/13 10:05:28;;;;;;;10.53;1.87;;;;;;;;;;5057313;27;88073;-55
2022/07/13 10:07:58;;;;;;;3.97;1.50;;;;;;;;;;5064829;27;87748;-54
2022/07/13 10:10:26;;;;;;;2.10;1.73;;;;;;;;;;5063416;27;87831;-54
2022/07/13 10:12:54;;;;;;;2.03;1.63;;;;;;;;;;5060495;27;87026;-54
2022/07/13 10:15:23;;;;;;;5.10;1.80;;;;;;;;;;5060905;27;88149;-54
2022/07/13 10:17:52;;;;;;;2.70;1.70;;;;;;;;;;5051078;27;87764;-54
2022/07/13 10:20:21;;;;;;;2.37;2.00;;;;;;;;;;5064138;27;87069;-55
2022/07/13 10:22:59;;;;;;;3.87;1.40;;;;;;;;;;5064083;27;87066;-54
2022/07/13 10:25:42;;;;;;;1.77;1.40;;;;;;;;;;5061895;27;87704;-53
2022/07/13 10:28:11;;;;;;;3.07;2.07;;;;;;;;;;5064704;27;87827;-53
2022/07/13 10:30:39;;;;;;;1.67;1.40;;;;;;;;;;5057401;27;87026;-54
2022/07/13 10:33:18;;;;;;;1.27;1.17;;;;;;;;;;5058664;27;86983;-53
2022/07/13 10:35:49;;;;;;;2.00;1.60;;;;;;;;;;5062791;27;89152;-53
2022/07/13 10:38:20;;;;;;;3.70;1.63;;;;;;;;;;5053666;27;88766;-53
2022/07/13 10:40:48;;;;;;;2.27;1.40;;;;;;;;;;5064718;27;87011;-52
2022/07/13 10:43:17;;;;;;;2.27;0.90;;;;;;;;;;5063014;27;87000;-52
2022/07/13 10:45:48;;;;;;;1.17;1.00;;;;;;;;;;5039698;27;88294;-53
2022/07/13 10:48:36;;;;;;;2.70;1.50;;;;;;;;;;5063871;27;89058;-52
2022/07/13 10:51:04;;;;;;;3.33;2.37;;;;;;;;;;5064523;27;87203;-53
2022/07/13 10:53:56;;;;;;;1.87;1.33;;;;;;;;;;5077306;27;86849;-52
2022/07/13 10:56:26;;;;;;;2.23;1.63;;;;;;;;;;5060005;27;86884;-53
2022/07/13 10:58:54;;;;;;;2.33;1.90;;;;;;;;;;5084061;27;87988;-53
2022/07/13 11:01:42;;;;;;;4.30;2.00;;;;;;;;;;5068018;27;88011;-51
2022/07/13 11:04:12;;;;;;;4.97;1.97;;;;;;;;;;5065297;27;86928;-51
2022/07/13 11:06:40;;;;;;;2.57;2.00;;;;;;;;;;5063690;27;89208;-51
2022/07/13 11:09:15;;;;;;;4.60;2.47;;;;;;;;;;5063738;27;87576;-51
2022/07/13 11:11:46;;;;;;;2.43;1.93;;;;;;;;;;5063073;27;86918;-54
2022/07/13 11:14:33;;;;;;;2.43;2.03;;;;;;;;;;5063622;27;87095;-50
2022/07/13 11:17:07;;;;;;;3.17;1.53;;;;;;;;;;5063575;27;89192;-51
2022/07/13 11:19:54;;;;;;;2.80;1.80;;;;;;;;;;5063509;27;88951;-51
2022/07/13 11:22:23;;;;;;;2.83;2.13;;;;;;;;;;5063711;27;87501;-52
2022/07/13 11:25:13;;;;;;;2.73;1.67;;;;;;;;;;5055505;27;86968;-51
2022/07/13 11:27:53;;;;;;;1.20;1.10;;;;;;;;;;5062791;27;90123;-51
2022/07/13 11:30:24;;;;;;;1.80;1.57;;;;;;;;;;5063135;27;90000;-52
2022/07/13 11:32:52;;;;;;;2.00;1.60;;;;;;;;;;5061398;27;87256;-51
2022/07/13 11:35:21;;;;;;;3.30;1.70;;;;;;;;;;5060516;27;87801;-52
2022/07/13 11:37:50;;;;;;;2.43;2.13;;;;;;;;;;5061627;27;88237;-52
2022/07/13 11:40:31;;;;;;;5.70;1.83;;;;;;;;;;5062431;27;87659;-52
2022/07/13 11:43:01;;;;;;;3.53;1.63;;;;;;;;;;5061640;27;87135;-52
2022/07/13 11:45:31;;;;;;;2.80;1.70;;;;;;;;;;5061101;27;86325;-51
2022/07/13 11:47:59;;;;;;;2.03;1.60;;;;;;;;;;5062556;27;88336;-51
2022/07/13 11:50:40;;;;;;;2.97;1.80;;;;;;;;;;5063110;27;87934;-51
2022/07/13 11:53:10;;;;;;;1.63;1.40;;;;;;;;;;5062728;27;87990;-51
2022/07/13 11:55:38;;;;;;;1.60;1.47;;;;;;;;;;5063471;27;87147;-51
2022/07/13 11:58:07;;;;;;;1.70;1.20;;;;;;;;;;5063285;27;89312;-51
2022/07/13 12:00:36;;;;;;;2.07;1.30;;;;;;;;;;5062938;27;88878;-51
2022/07/13 12:03:04;;;;;;;3.27;1.97;;;;;;;;;;5063132;27;87023;-52
2022/07/13 12:05:34;;;;;;;2.07;1.57;;;;;;;;;;5062735;27;86875;-52
2022/07/13 12:08:03;;;;;;;1.70;1.50;;;;;;;;;;5063428;27;88092;-52
2022/07/13 12:10:32;;;;;;;1.50;1.40;;;;;;;;;;5063486;27;87772;-52
2022/07/13 12:13:00;;;;;;;2.10;1.70;;;;;;;;;;5063105;27;87074;-51
2022/07/13 12:15:30;;;;;;;1.90;1.23;;;;;;;;;;5063459;27;86717;-51
2022/07/13 12:18:01;;;;;;;2.73;1.37;;;;;;;;;;5062518;27;89996;-51
2022/07/13 12:20:31;;;;;;;1.87;1.43;;;;;;;;;;5063374;27;89962;-52
2022/07/13 12:22:59;;;;;;;1.70;1.23;;;;;;;;;;5062355;27;86859;-51
2022/07/13 12:25:29;;;;;;;2.17;1.20;;;;;;;;;;5063169;27;86917;-52
2022/07/13 12:27:59;;;;;;;1.77;1.33;;;;;;;;;;5063696;27;89575;-50
2022/07/13 12:30:27;;;;;;;2.07;1.60;;;;;;;;;;5062844;27;87722;-51
2022/07/13 12:32:57;;;;;;;4.90;1.43;;;;;;;;;;5063193;27;86807;-51
2022/07/13 12:35:27;;;;;;;2.20;1.40;;;;;;;;;;5063178;27;86380;-51
2022/07/13 12:37:57;;;;;;;3.80;1.80;;;;;;;;;;5062152;27;88218;-52
2022/07/13 12:40:38;;;;;;;2.10;1.73;;;;;;;;;;5062685;27;89002;-51
2022/07/13 12:43:07;;;;;;;2.03;1.20;;;;;;;;;;5061672;27;87955;-51
2022/07/13 12:45:35;;;;;;;2.37;1.40;;;;;;;;;;5062924;27;87094;-52
2022/07/13 12:48:06;;;;;;;1.60;1.30;;;;;;;;;;5062508;27;89165;-51
2022/07/13 12:50:35;;;;;;;1.77;1.33;;;;;;;;;;5061874;27;87936;-51
2022/07/13 12:53:03;;;;;;;1.80;1.30;;;;;;;;;;5062812;27;87079;-51
2022/07/13 12:55:42;;;;;;;1.40;1.13;;;;;;;;;;5062265;27;87565;-52
2022/07/13 12:58:11;;;;;;;1.47;1.00;;;;;;;;;;5062471;27;88321;-51
2022/07/13 13:00:39;;;;;;;1.40;1.00;;;;;;;;;;5062481;27;87784;-51
2022/07/13 13:03:20;;;;;;;1.20;1.10;;;;;;;;;;5062346;27;86943;-51
2022/07/13 13:05:49;;;;;;;2.77;1.40;;;;;;;;;;5062418;27;86719;-51
2022/07/13 13:08:17;;;;;;;0.73;0.73;;;;;;;;;;5061608;27;89144;-51
2022/07/13 13:10:46;;;;;;;1.27;1.17;;;;;;;;;;5062333;27;89796;-51
2022/07/13 13:13:14;;;;;;;1.70;1.23;;;;;;;;;;5062181;27;86929;-51
2022/07/13 13:15:42;;;;;;;2.47;1.17;;;;;;;;;;5062587;27;87180;-51
2022/07/13 13:18:11;;;;;;;1.67;1.40;;;;;;;;;;5062398;27;88957;-51
2022/07/13 13:20:41;;;;;;;1.07;1.00;;;;;;;;;;5061957;27;88837;-52
2022/07/13 13:23:09;;;;;;;1.67;0.90;;;;;;;;;;5061995;27;87008;-52
2022/07/13 13:25:37;;;;;;;2.40;1.27;;;;;;;;;;5062324;27;86201;-51
2022/07/13 13:28:06;;;;;;;3.27;1.40;;;;;;;;;;5061788;27;88318;-51
2022/07/13 13:30:45;;;;;;;1.17;0.90;;;;;;;;;;5062193;27;88514;-52
2022/07/13 13:33:14;;;;;;;1.23;0.67;;;;;;;;;;5061646;27;87646;-51
2022/07/13 13:35:44;;;;;;;1.50;1.00;;;;;;;;;;5062074;27;86959;-51
2022/07/13 13:38:12;;;;;;;1.20;0.90;;;;;;;;;;5062201;27;88259;-52
2022/07/13 13:40:40;;;;;;;1.30;1.20;;;;;;;;;;5061978;27;89071;-52
2022/07/13 13:43:11;;;;;;;2.97;0.90;;;;;;;;;;5061886;27;87023;-52
2022/07/13 13:45:39;;;;;;;1.10;1.00;;;;;;;;;;5062331;27;87034;-52
2022/07/13 13:48:08;;;;;;;1.20;0.90;;;;;;;;;;5062079;27;88796;-51
2022/07/13 13:50:36;;;;;;;1.10;1.00;;;;;;;;;;5062138;27;87835;-51
2022/07/13 13:53:06;;;;;;;1.10;1.00;;;;;;;;;;5062082;27;86727;-51
2022/07/13 13:55:34;;;;;;;1.70;1.00;;;;;;;;;;5061883;27;86838;-51
2022/07/13 13:58:02;;;;;;;1.23;1.13;;;;;;;;;;5061056;27;90114;-51
2022/07/13 14:00:31;;;;;;;1.10;1.00;;;;;;;;;;5061514;27;88888;-51
2022/07/13 14:02:59;;;;;;;1.30;1.20;;;;;;;;;;5061675;27;86876;-52
2022/07/13 14:05:27;;;;;;;1.70;1.10;;;;;;;;;;5061589;27;87022;-51
2022/07/13 14:07:56;;;;;;;1.40;0.90;;;;;;;;;;5061696;27;89485;-52
2022/07/13 14:10:26;;;;;;;3.43;1.00;;;;;;;;;;5061080;27;89044;-51
2022/07/13 14:12:54;;;;;;;1.43;1.20;;;;;;;;;;5061586;27;86834;-52
2022/07/13 14:15:23;;;;;;;1.23;0.80;;;;;;;;;;5061385;27;85991;-51
2022/07/13 14:17:51;;;;;;;1.30;1.20;;;;;;;;;;5060672;27;87242;-51
2022/07/13 14:20:21;;;;;;;1.83;1.03;;;;;;;;;;5061008;27;87442;-52
2022/07/13 14:22:49;;;;;;;1.63;1.17;;;;;;;;;;5060501;27;88982;-51
2022/07/13 14:25:19;;;;;;;1.23;0.93;;;;;;;;;;5060755;27;87048;-52
2022/07/13 14:27:49;;;;;;;1.50;0.80;;;;;;;;;;5060568;27;89122;-51
2022/07/13 14:30:17;;;;;;;1.27;1.07;;;;;;;;;;5060541;27;87052;-52
2022/07/13 14:32:46;;;;;;;1.00;0.80;;;;;;;;;;5060929;27;86967;-51
2022/07/13 14:35:21;;;;;;;2.10;0.93;;;;;;;;;;5060623;27;87001;-51
2022/07/13 14:37:49;;;;;;;1.00;0.80;;;;;;;;;;5060790;27;89129;-52
2022/07/13 14:40:38;;;;;;;1.40;0.83;;;;;;;;;;5061293;27;89498;-52
2022/07/13 14:43:07;;;;;;;1.13;0.80;;;;;;;;;;5061262;27;87084;-52
2022/07/13 14:45:35;;;;;;;0.97;0.60;;;;;;;;;;5061914;27;86932;-51
2022/07/13 14:48:04;;;;;;;0.70;0.70;;;;;;;;;;5063568;27;89026;-51
2022/07/13 14:50:52;;;;;;;1.00;0.90;;;;;;;;;;5063892;27;88418;-51
2022/07/13 14:53:38;;;;;;;1.87;0.77;;;;;;;;;;5064474;27;87048;-51
2022/07/13 14:56:06;;;;;;;1.53;0.90;;;;;;;;;;5064041;27;87128;-52
2022/07/13 14:58:36;;;;;;;0.70;0.70;;;;;;;;;;5064272;27;88067;-51
2022/07/13 15:01:15;;;;;;;2.63;1.07;;;;;;;;;;5063901;27;87973;-52
2022/07/13 15:03:46;;;;;;;0.70;0.70;;;;;;;;;;5044117;28;87029;-51
2022/07/13 15:06:16;;;;;;;1.80;0.93;;;;;;;;;;5044015;28;86353;-51